BAW195 LOWS-EGKK
Flight info
| Callsign | BAW195 |
|---|---|
| Flight time | N/A |
| Altitude | 36000 |
| Route | TRAUN L856 KONIN/N0437F360 DCT AMEXO DCT BABEG DCT SUNEG L608 ULNOK DCT ADENU DCT LIRSU DCT DENUT L610 TEBRA |
| Aircraft | A319/M-SDE3FGHIRWY/LB1 |
Departure
| Time | 2026-05-01 10:47 |
|---|---|
| Airport | Salzburg Airport (LOWS) |
Arrival
| Time | N/A |
|---|---|
| Airport | London Gatwick Airport (EGKK) |
| Time | Latitude | Longitude | Altitude | Speed | Heading |
|---|---|---|---|---|---|
| 2026-05-01 10:14 | 47.79145 | 12.99922 | 1422 ft | 0 kts | 281° |
| 2026-05-01 10:39 | 47.79143 | 12.99933 | 1422 ft | 4 kts | 281° |
| 2026-05-01 10:39 | 47.79138 | 12.99972 | 1422 ft | 4 kts | 281° |
| 2026-05-01 10:39 | 47.79136 | 13.00011 | 1422 ft | 4 kts | 255° |
| 2026-05-01 10:39 | 47.79145 | 13.00034 | 1422 ft | 4 kts | 173° |
| 2026-05-01 10:40 | 47.79150 | 13.00033 | 1422 ft | 0 kts | 158° |
| 2026-05-01 10:43 | 47.79142 | 13.00038 | 1422 ft | 3 kts | 157° |
| 2026-05-01 10:43 | 47.79105 | 13.00062 | 1422 ft | 9 kts | 156° |
| 2026-05-01 10:44 | 47.79027 | 13.00114 | 1422 ft | 16 kts | 156° |
| 2026-05-01 10:44 | 47.78955 | 13.00245 | 1422 ft | 19 kts | 95° |
| 2026-05-01 10:44 | 47.78886 | 13.00412 | 1421 ft | 22 kts | 156° |
| 2026-05-01 10:44 | 47.78735 | 13.00508 | 1420 ft | 25 kts | 156° |
| 2026-05-01 10:45 | 47.78564 | 13.00612 | 1420 ft | 28 kts | 157° |
| 2026-05-01 10:45 | 47.78379 | 13.00734 | 1423 ft | 25 kts | 156° |
| 2026-05-01 10:45 | 47.78222 | 13.00840 | 1421 ft | 19 kts | 150° |
| 2026-05-01 10:45 | 47.78183 | 13.00975 | 1419 ft | 11 kts | 80° |
| 2026-05-01 10:46 | 47.78226 | 13.01076 | 1420 ft | 13 kts | 24° |
| 2026-05-01 10:46 | 47.78288 | 13.01055 | 1419 ft | 0 kts | 337° |
| 2026-05-01 10:46 | 47.78340 | 13.01021 | 1418 ft | 34 kts | 336° |
| 2026-05-01 10:46 | 47.78772 | 13.00749 | 1421 ft | 99 kts | 338° |
| 2026-05-01 10:47 | 47.79574 | 13.00239 | 1425 ft | 151 kts | 337° |
| 2026-05-01 10:47 | 47.80597 | 12.99601 | 1779 ft | 165 kts | 335° |
| 2026-05-01 10:47 | 47.81660 | 12.98926 | 2377 ft | 169 kts | 332° |
| 2026-05-01 10:47 | 47.82605 | 12.97790 | 2699 ft | 186 kts | 305° |
| 2026-05-01 10:48 | 47.83306 | 12.96015 | 2913 ft | 212 kts | 298° |
| 2026-05-01 10:48 | 47.84076 | 12.93990 | 3323 ft | 236 kts | 298° |
| 2026-05-01 10:48 | 47.84924 | 12.91773 | 3918 ft | 252 kts | 298° |
| 2026-05-01 10:48 | 47.85805 | 12.89483 | 4794 ft | 257 kts | 299° |
| 2026-05-01 10:49 | 47.86707 | 12.87139 | 5702 ft | 262 kts | 298° |
| 2026-05-01 10:49 | 47.87609 | 12.84801 | 6614 ft | 266 kts | 298° |
| 2026-05-01 10:49 | 47.88535 | 12.82396 | 7498 ft | 270 kts | 298° |
| 2026-05-01 10:49 | 47.89477 | 12.79947 | 8362 ft | 274 kts | 298° |
| 2026-05-01 10:50 | 47.90435 | 12.77460 | 9209 ft | 277 kts | 298° |
| 2026-05-01 10:50 | 47.91404 | 12.74938 | 9956 ft | 286 kts | 299° |
| 2026-05-01 10:50 | 47.92432 | 12.72243 | 10245 ft | 309 kts | 298° |
| 2026-05-01 10:50 | 47.93507 | 12.69390 | 10802 ft | 320 kts | 298° |
| 2026-05-01 10:51 | 47.94591 | 12.66499 | 11513 ft | 325 kts | 298° |
| 2026-05-01 10:51 | 47.95699 | 12.63529 | 12244 ft | 329 kts | 298° |
| 2026-05-01 10:51 | 47.96631 | 12.60398 | 12958 ft | 332 kts | 287° |
| 2026-05-01 10:51 | 47.97072 | 12.57003 | 13643 ft | 335 kts | 274° |
| 2026-05-01 10:52 | 47.96999 | 12.53511 | 14319 ft | 339 kts | 262° |
| 2026-05-01 10:52 | 47.96663 | 12.50004 | 14984 ft | 342 kts | 262° |
| 2026-05-01 10:52 | 47.96336 | 12.46518 | 15628 ft | 345 kts | 262° |
| 2026-05-01 10:52 | 47.96005 | 12.42958 | 16258 ft | 348 kts | 262° |
| 2026-05-01 10:53 | 47.95673 | 12.39354 | 16887 ft | 352 kts | 262° |
| 2026-05-01 10:53 | 47.95337 | 12.35715 | 17493 ft | 355 kts | 262° |
| 2026-05-01 10:53 | 47.94997 | 12.32043 | 18086 ft | 359 kts | 262° |
| 2026-05-01 10:53 | 47.94647 | 12.28330 | 18666 ft | 362 kts | 262° |
| 2026-05-01 10:54 | 47.94291 | 12.24599 | 19249 ft | 365 kts | 262° |
| 2026-05-01 10:54 | 47.93931 | 12.20830 | 19818 ft | 368 kts | 262° |
| 2026-05-01 10:54 | 47.93572 | 12.17085 | 20370 ft | 371 kts | 262° |
| 2026-05-01 10:54 | 47.93204 | 12.13252 | 20917 ft | 374 kts | 262° |
| 2026-05-01 10:55 | 47.92830 | 12.09389 | 21434 ft | 377 kts | 262° |
| 2026-05-01 10:55 | 47.92452 | 12.05500 | 21943 ft | 381 kts | 262° |
| 2026-05-01 10:55 | 47.92069 | 12.01562 | 22436 ft | 384 kts | 262° |
| 2026-05-01 10:55 | 47.91685 | 11.97603 | 22926 ft | 387 kts | 262° |
| 2026-05-01 10:56 | 47.91428 | 11.94966 | 23245 ft | 389 kts | 262° |
| 2026-05-01 10:56 | 47.90902 | 11.89645 | 23860 ft | 393 kts | 262° |
| 2026-05-01 10:56 | 47.90628 | 11.86915 | 24160 ft | 395 kts | 262° |
| 2026-05-01 10:56 | 47.90221 | 11.82855 | 24602 ft | 397 kts | 262° |
| 2026-05-01 10:57 | 47.89811 | 11.78753 | 25022 ft | 400 kts | 262° |
| 2026-05-01 10:57 | 47.89407 | 11.74692 | 25429 ft | 403 kts | 262° |
| 2026-05-01 10:57 | 47.88997 | 11.70541 | 25838 ft | 406 kts | 262° |
| 2026-05-01 10:57 | 47.88586 | 11.66370 | 26227 ft | 408 kts | 262° |
| 2026-05-01 10:58 | 47.88168 | 11.62157 | 26618 ft | 411 kts | 262° |
| 2026-05-01 10:58 | 47.87746 | 11.57942 | 26997 ft | 414 kts | 262° |
| 2026-05-01 10:58 | 47.87314 | 11.53687 | 27366 ft | 416 kts | 262° |
| 2026-05-01 10:58 | 47.86878 | 11.49407 | 27737 ft | 418 kts | 261° |
| 2026-05-01 10:59 | 47.86446 | 11.45103 | 28118 ft | 421 kts | 263° |
| 2026-05-01 10:59 | 47.86349 | 11.40790 | 28468 ft | 423 kts | 274° |
| 2026-05-01 10:59 | 47.86795 | 11.36448 | 28803 ft | 426 kts | 284° |
| 2026-05-01 10:59 | 47.87788 | 11.32269 | 29147 ft | 429 kts | 295° |
| 2026-05-01 11:00 | 47.89279 | 11.28404 | 29492 ft | 431 kts | 303° |
| 2026-05-01 11:00 | 47.90942 | 11.24659 | 29811 ft | 434 kts | 303° |
| 2026-05-01 11:00 | 47.92582 | 11.20932 | 30114 ft | 436 kts | 302° |
| 2026-05-01 11:00 | 47.94241 | 11.17129 | 30421 ft | 438 kts | 302° |
| 2026-05-01 11:01 | 47.95901 | 11.13298 | 30750 ft | 440 kts | 302° |
| 2026-05-01 11:01 | 47.97567 | 11.09445 | 31051 ft | 442 kts | 302° |
| 2026-05-01 11:01 | 47.99240 | 11.05580 | 31329 ft | 444 kts | 302° |
| 2026-05-01 11:01 | 48.00922 | 11.01701 | 31607 ft | 446 kts | 302° |
| 2026-05-01 11:02 | 48.02610 | 10.97812 | 31998 ft | 445 kts | 302° |
| 2026-05-01 11:02 | 48.04221 | 10.94101 | 32371 ft | 444 kts | 302° |